Time;durP1;ratioP1;P1;durP2;ratioP2;P2;SDS_P1;SDS_P2;PMS_P1;PMS_P2;Temp;Humidity;BMP_temperature;BMP_pressure;BME280_temperature;BME280_humidity;BME280_pressure;Samples;Min_cycle;Max_cycle;Signal;HPM_P1;HPM_P2
2022/06/09 04:38:01;;;;;;;2.38;1.40;;;;;;;14.17;98.85;98195.53;5099108;27;20580;-71
2022/06/09 04:40:38;;;;;;;3.67;1.30;;;;;;;14.94;94.41;98201.13;5101687;28;20345;-71
2022/06/09 04:43:06;;;;;;;5.88;1.42;;;;;;;15.50;91.30;98207.44;5101369;28;20073;-70
2022/06/09 04:45:32;;;;;;;2.17;1.13;;;;;;;15.96;88.55;98207.03;5101268;28;20023;-71
2022/06/09 04:47:57;;;;;;;4.55;1.13;;;;;;;16.38;86.47;98202.28;5101556;28;20051;-70
2022/06/09 04:50:23;;;;;;;2.95;1.05;;;;;;;16.66;84.94;98204.47;5101267;28;20223;-71
2022/06/09 04:52:49;;;;;;;3.75;1.10;;;;;;;17.02;82.38;98208.75;5101232;28;20024;-71
2022/06/09 04:55:15;;;;;;;4.85;1.10;;;;;;;17.40;82.83;98203.25;5101356;28;20027;-70
2022/06/09 04:57:40;;;;;;;4.15;1.10;;;;;;;17.76;80.40;98211.94;5101367;28;20024;-71
2022/06/09 05:00:09;;;;;;;3.53;1.20;;;;;;;17.90;79.89;98209.34;5101054;28;20027;-71
2022/06/09 05:02:34;;;;;;;3.95;1.15;;;;;;;18.26;78.40;98212.66;5100943;28;20344;-71
2022/06/09 05:05:00;;;;;;;5.82;0.98;;;;;;;18.34;80.18;98221.91;5100980;28;20024;-71
2022/06/09 05:07:25;;;;;;;5.80;1.23;;;;;;;18.65;75.85;98221.03;5100939;28;20024;-71
2022/06/09 05:09:51;;;;;;;7.47;0.82;;;;;;;18.69;77.37;98222.59;5100821;28;20027;-71
2022/06/09 05:12:16;;;;;;;4.55;1.27;;;;;;;19.02;75.89;98221.47;5100807;28;20092;-71
2022/06/09 05:14:42;;;;;;;6.57;1.00;;;;;;;19.02;73.43;98218.78;5100796;28;20020;-70
2022/06/09 05:17:07;;;;;;;4.40;1.23;;;;;;;19.10;72.74;98229.00;5100652;28;20065;-70
2022/06/09 05:19:33;;;;;;;2.83;0.80;;;;;;;19.40;73.15;98235.22;5100689;28;20086;-70
2022/06/09 05:21:58;;;;;;;7.60;1.25;;;;;;;19.35;71.70;98234.63;5100651;28;20085;-70
2022/06/09 05:24:24;;;;;;;5.50;1.10;;;;;;;19.41;72.05;98238.72;5100666;28;20435;-71
2022/06/09 05:26:49;;;;;;;5.47;0.93;;;;;;;19.54;71.86;98245.91;5100494;28;20087;-70
2022/06/09 05:29:14;;;;;;;4.88;1.40;;;;;;;19.75;71.78;98247.25;5100582;28;20035;-70
2022/06/09 05:31:40;;;;;;;3.80;0.73;;;;;;;20.01;71.52;98246.47;5100462;28;20311;-70
2022/06/09 05:34:06;;;;;;;10.32;1.48;;;;;;;20.13;69.86;98251.09;5100435;28;20020;-70
2022/06/09 05:36:32;;;;;;;3.20;0.95;;;;;;;20.27;69.58;98237.69;5099073;28;20095;-70
2022/06/09 05:47:09;;;;;;;5.38;1.02;;;;;;;19.00;72.60;98249.19;5086636;28;20058;-70
2022/06/09 05:49:34;;;;;;;5.45;1.48;;;;;;;18.76;74.51;98247.94;5086648;28;20020;-70
2022/06/09 05:51:59;;;;;;;9.85;1.50;;;;;;;18.29;75.31;98249.78;5086544;28;20048;-70
2022/06/09 05:54:25;;;;;;;8.60;1.52;;;;;;;17.91;76.81;98259.03;5086559;28;20021;-70
2022/06/09 05:56:50;;;;;;;4.28;1.17;;;;;;;18.18;78.14;98268.16;5086426;28;20020;-70
2022/06/09 05:59:16;;;;;;;6.78;1.33;;;;;;;17.95;81.87;98266.75;5086524;28;20242;-70
2022/06/09 06:01:42;;;;;;;2.75;0.82;;;;;;;17.78;78.92;98265.97;5086404;28;20028;-70
2022/06/09 06:04:09;;;;;;;3.97;1.10;;;;;;;17.62;80.50;98265.06;5086365;28;20082;-70
2022/06/09 06:06:34;;;;;;;2.95;1.10;;;;;;;17.37;80.93;98269.91;5086300;28;20020;-70
2022/06/09 06:09:07;;;;;;;4.90;1.00;;;;;;;17.22;83.29;98269.75;5086268;28;20112;-70
2022/06/09 06:11:33;;;;;;;6.65;1.67;;;;;;;16.89;82.95;98276.78;5086219;28;20031;-70
2022/06/09 06:13:59;;;;;;;6.82;1.33;;;;;;;16.75;84.39;98294.38;5086212;28;20020;-70
2022/06/09 06:16:25;;;;;;;7.57;1.52;;;;;;;16.62;84.42;98283.50;5086299;28;20108;-70
2022/06/09 06:18:50;;;;;;;3.78;1.10;;;;;;;16.57;86.05;98293.47;5086141;28;20236;-70
2022/06/09 06:21:16;;;;;;;6.65;1.30;;;;;;;16.47;85.39;98294.84;5086078;28;20028;-70
2022/06/09 06:23:42;;;;;;;5.93;1.45;;;;;;;16.18;85.92;98298.00;5086086;28;20025;-70
2022/06/09 06:26:08;;;;;;;9.80;1.73;;;;;;;16.10;84.93;98294.81;5085961;28;20036;-70
2022/06/09 06:28:34;;;;;;;8.23;1.67;;;;;;;15.82;87.73;98301.50;5085871;28;20061;-70
2022/06/09 06:30:59;;;;;;;5.28;1.52;;;;;;;15.59;87.50;98302.50;5085855;28;20088;-70
2022/06/09 06:33:25;;;;;;;4.72;1.42;;;;;;;15.74;87.94;98312.44;5085807;28;20111;-70
2022/06/09 06:35:50;;;;;;;6.28;1.88;;;;;;;15.65;87.12;98315.50;5085514;28;20036;-70
2022/06/09 06:38:16;;;;;;;5.93;1.83;;;;;;;15.64;89.49;98324.41;5085812;28;20073;-70
2022/06/09 06:40:42;;;;;;;8.65;1.33;;;;;;;15.61;90.15;98324.53;5085641;28;20024;-70
2022/06/09 06:43:08;;;;;;;7.18;2.00;;;;;;;15.41;90.01;98316.56;5085855;28;20048;-70
2022/06/09 06:45:33;;;;;;;7.03;1.20;;;;;;;15.49;89.49;98321.53;5085576;28;20024;-70
2022/06/09 06:47:59;;;;;;;7.72;1.35;;;;;;;15.10;89.78;98327.59;5085467;28;20020;-70
2022/06/09 06:50:24;;;;;;;7.15;1.40;;;;;;;15.25;90.74;98334.03;5084554;28;20051;-70
2022/06/09 06:52:50;;;;;;;3.30;1.30;;;;;;;15.67;91.25;98332.22;5085399;28;20330;-70
2022/06/09 06:55:18;;;;;;;10.45;1.92;;;;;;;15.87;87.66;98334.84;5085337;28;20048;-70
2022/06/09 06:57:43;;;;;;;4.88;1.27;;;;;;;15.88;89.48;98336.56;5085319;28;20020;-70
2022/06/09 07:00:13;;;;;;;5.05;1.13;;;;;;;16.11;88.71;98338.19;5085212;28;20027;-70
2022/06/09 07:02:38;;;;;;;3.92;1.38;;;;;;;16.27;88.05;98345.38;5085448;28;20021;-70
2022/06/09 07:05:04;;;;;;;4.05;1.45;;;;;;;16.34;85.92;98336.19;5085176;28;20087;-70
2022/06/09 07:07:30;;;;;;;6.03;1.13;;;;;;;16.29;87.08;98347.94;5085111;28;20034;-70
2022/06/09 07:09:56;;;;;;;8.45;1.40;;;;;;;16.12;85.89;98343.44;5085028;28;20024;-70
2022/06/09 07:12:21;;;;;;;3.72;1.25;;;;;;;16.33;86.95;98350.38;5085035;28;20031;-70
2022/06/09 07:14:47;;;;;;;7.78;1.38;;;;;;;16.21;86.53;98350.97;5084926;28;20028;-70
2022/06/09 07:17:12;;;;;;;5.30;1.13;;;;;;;16.25;86.23;98352.53;5084980;28;20356;-70
2022/06/09 07:19:37;;;;;;;3.13;1.13;;;;;;;16.23;82.93;98350.91;5084864;28;20020;-70
2022/06/09 07:22:05;;;;;;;3.50;1.33;;;;;;;16.21;87.14;98356.28;5084781;28;20118;-70
2022/06/09 07:24:30;;;;;;;5.72;1.38;;;;;;;15.96;86.80;98354.81;5084807;28;20031;-70
2022/06/09 07:26:56;;;;;;;5.70;1.52;;;;;;;15.57;88.37;98360.09;5084694;28;20087;-70
2022/06/09 07:29:21;;;;;;;4.72;1.27;;;;;;;15.43;86.15;98358.94;5084729;28;20211;-70
2022/06/09 07:31:47;;;;;;;9.00;2.45;;;;;;;15.42;87.83;98373.13;5084597;28;20047;-70
2022/06/09 07:34:12;;;;;;;7.72;1.50;;;;;;;15.53;87.50;98366.44;5084651;28;20074;-70
2022/06/09 07:36:39;;;;;;;9.80;1.65;;;;;;;15.48;85.38;98372.88;5084337;28;20029;-70
2022/06/09 07:39:04;;;;;;;9.32;2.05;;;;;;;15.46;87.76;98370.28;5084507;28;20047;-70
2022/06/09 07:41:30;;;;;;;5.90;1.55;;;;;;;15.45;87.47;98379.19;5084507;28;20319;-70
2022/06/09 07:43:55;;;;;;;7.43;1.63;;;;;;;15.38;87.49;98367.13;5084400;28;20315;-70
2022/06/09 07:46:21;;;;;;;7.80;1.88;;;;;;;15.47;88.40;98374.66;5084473;28;20023;-70
2022/06/09 07:48:46;;;;;;;3.92;1.58;;;;;;;15.62;88.47;98371.34;5084412;28;20025;-70
2022/06/09 07:51:12;;;;;;;9.38;1.92;;;;;;;15.70;88.27;98374.56;5084395;28;20350;-70
2022/06/09 07:53:38;;;;;;;4.57;1.10;;;;;;;15.64;87.83;98374.81;5084291;28;20024;-70
2022/06/09 07:56:04;;;;;;;3.35;1.23;;;;;;;15.80;87.22;98377.66;5084196;28;20020;-70
2022/06/09 07:58:29;;;;;;;7.53;1.50;;;;;;;15.89;85.69;98380.78;5084463;28;20025;-70
2022/06/09 08:00:55;;;;;;;4.85;1.70;;;;;;;15.84;87.61;98388.06;5083994;28;20024;-70
2022/06/09 08:03:23;;;;;;;7.82;1.70;;;;;;;15.81;87.07;98390.84;5084166;28;20028;-70
2022/06/09 08:05:49;;;;;;;6.05;1.38;;;;;;;15.69;87.07;98380.75;5084170;28;20061;-70
2022/06/09 08:08:15;;;;;;;10.77;2.05;;;;;;;15.42;87.39;98381.09;5084171;28;20020;-70
2022/06/09 08:10:42;;;;;;;12.27;1.80;;;;;;;15.51;87.75;98393.97;5084071;28;20020;-70
2022/06/09 08:13:08;;;;;;;5.38;1.40;;;;;;;15.56;86.41;98390.19;5084346;28;20077;-70
2022/06/09 08:15:33;;;;;;;6.05;1.40;;;;;;;15.64;86.35;98396.03;5084032;28;20055;-70
2022/06/09 08:17:59;;;;;;;4.07;1.33;;;;;;;16.08;86.77;98396.72;5084059;28;20070;-70
2022/06/09 08:20:30;;;;;;;5.75;1.52;;;;;;;16.38;86.41;98396.19;5084093;28;20024;-70
2022/06/09 08:23:18;;;;;;;10.88;1.67;;;;;;;17.23;85.60;98404.50;5083968;28;20330;-70
2022/06/09 08:25:45;;;;;;;5.95;1.88;;;;;;;16.99;81.68;98400.34;5084038;28;20103;-70
2022/06/09 08:28:12;;;;;;;6.07;1.75;;;;;;;17.25;82.35;98412.38;5083865;28;20020;-70
2022/06/09 08:30:38;;;;;;;8.57;1.77;;;;;;;16.89;81.14;98409.72;5083878;28;20048;-70
2022/06/09 08:33:04;;;;;;;13.23;2.15;;;;;;;16.62;84.41;98411.03;5083871;28;20047;-70
2022/06/09 08:35:31;;;;;;;5.47;1.67;;;;;;;16.64;82.29;98409.16;5083627;28;20029;-70
2022/06/09 08:37:57;;;;;;;9.05;2.00;;;;;;;16.96;81.68;98421.78;5083906;28;20024;-70
2022/06/09 08:40:28;;;;;;;16.65;1.35;;;;;;;17.17;81.95;98419.88;5083888;28;20024;-70
2022/06/09 08:43:00;;;;;;;10.40;1.65;;;;;;;17.29;81.38;98421.94;5083864;28;20043;-70
2022/06/09 08:45:35;;;;;;;9.93;1.77;;;;;;;17.85;80.29;98430.63;5083788;28;20185;-70
2022/06/09 08:48:02;;;;;;;10.10;1.75;;;;;;;18.16;78.94;98420.06;5083742;28;20096;-70
2022/06/09 09:19:26;;;;;;;7.97;1.45;;;;;;;19.25;71.80;98452.25;5081602;28;20570;-70
2022/06/09 09:22:08;;;;;;;6.82;1.52;;;;;;;18.74;74.76;98453.34;5081383;28;20320;-70
2022/06/09 09:24:39;;;;;;;5.07;1.35;;;;;;;18.13;75.27;98454.00;5080140;28;20021;-71
2022/06/09 09:27:21;;;;;;;8.55;1.48;;;;;;;18.93;73.30;98456.72;5081219;28;20025;-71
2022/06/09 09:30:17;;;;;;;7.57;1.60;;;;;;;20.93;69.62;98458.00;5081222;28;20021;-71
2022/06/09 09:32:46;;;;;;;11.63;1.75;;;;;;;21.65;65.58;98456.88;5081234;28;20253;-71
2022/06/09 09:35:18;;;;;;;4.88;1.88;;;;;;;21.58;63.19;98463.63;5081364;28;20044;-71
2022/06/09 09:37:48;;;;;;;6.20;1.40;;;;;;;21.96;64.12;98467.31;5081300;28;20024;-70
2022/06/09 09:40:18;;;;;;;6.28;1.33;;;;;;;23.17;61.58;98468.50;5081095;28;20092;-70
2022/06/09 09:42:45;;;;;;;6.82;1.70;;;;;;;22.18;62.01;98457.69;5081046;28;20088;-70
2022/06/09 09:45:10;;;;;;;5.93;1.38;;;;;;;22.61;62.81;98466.31;5080909;28;20215;-70
2022/06/09 09:47:50;;;;;;;4.88;1.10;;;;;;;22.51;60.38;98465.25;5080900;28;20013;-70
2022/06/09 09:50:36;;;;;;;2.03;0.95;;;;;;;22.32;57.91;98459.41;5080846;28;20038;-70
2022/06/09 09:53:14;;;;;;;5.10;1.13;;;;;;;23.06;59.41;98471.09;5080998;28;20021;-70
2022/06/09 09:55:59;;;;;;;7.97;1.77;;;;;;;22.32;61.03;98464.78;5080724;28;20084;-71
2022/06/09 09:58:36;;;;;;;4.47;1.38;;;;;;;21.95;60.98;98473.59;5080626;28;20433;-71
2022/06/09 10:01:16;;;;;;;4.55;1.10;;;;;;;21.87;60.33;98470.59;5080554;28;20052;-71
2022/06/09 10:09:35;;;;;;;4.65;1.05;;;;;;;22.29;60.43;98465.84;5080469;28;20019;-70
2022/06/09 10:12:16;;;;;;;8.50;1.00;;;;;;;22.59;59.89;98479.84;5080417;28;20044;-71
2022/06/09 10:14:53;;;;;;;5.25;1.42;;;;;;;23.87;58.37;98478.47;5080640;28;20032;-71
2022/06/09 10:17:33;;;;;;;7.43;1.45;;;;;;;23.85;55.90;98475.03;5080165;28;20036;-71
2022/06/09 10:20:32;;;;;;;5.32;1.23;;;;;;;22.28;59.45;98474.00;5080179;28;20035;-70
2022/06/09 10:23:06;;;;;;;2.85;1.02;;;;;;;21.04;62.19;98482.28;5080108;28;20257;-70
2022/06/09 10:26:02;;;;;;;9.48;1.15;;;;;;;20.00;64.60;98468.31;5080075;28;20024;-70
2022/06/09 10:28:46;;;;;;;6.15;1.30;;;;;;;20.21;64.97;98475.94;5079721;28;20052;-70
2022/06/09 10:31:17;;;;;;;6.32;1.65;;;;;;;21.62;64.13;98484.75;5066639;28;20201;-70
2022/06/09 10:34:00;;;;;;;8.45;1.40;;;;;;;22.48;61.16;98473.47;5066758;28;20024;-70
2022/06/09 10:36:46;;;;;;;1.58;1.00;;;;;;;21.63;63.76;98485.59;5066657;28;20223;-70
2022/06/09 10:39:38;;;;;;;3.30;1.00;;;;;;;20.92;64.66;98483.03;5055650;28;20060;-71
2022/06/09 10:42:28;;;;;;;8.18;1.75;;;;;;;20.77;66.13;98481.34;5047379;28;20040;-71
2022/06/09 10:45:11;;;;;;;4.35;0.77;;;;;;;20.65;67.56;98481.22;5066533;28;20040;-71
2022/06/09 10:56:35;;;;;;;5.15;1.35;;;;;;;20.93;66.92;98494.59;5066291;28;20059;-70
2022/06/09 10:59:35;;;;;;;6.15;1.25;;;;;;;21.14;64.43;98485.25;5066207;28;20028;-70
2022/06/09 11:02:02;;;;;;;4.72;1.20;;;;;;;22.05;61.05;98482.78;5066421;28;20208;-70
2022/06/09 11:04:34;;;;;;;4.50;1.15;;;;;;;22.31;61.23;98484.53;5066140;28;20021;-70
2022/06/09 11:07:08;;;;;;;9.88;1.55;;;;;;;23.10;61.37;98500.31;5065976;28;20023;-70
2022/06/09 11:09:40;;;;;;;4.70;1.90;;;;;;;23.59;58.42;98499.44;5066072;28;20021;-70
2022/06/09 11:12:37;;;;;;;4.43;1.35;;;;;;;24.31;55.16;98489.44;5066009;28;20074;-70
2022/06/09 11:15:02;;;;;;;9.18;1.58;;;;;;;24.55;55.22;98490.22;5065962;28;20025;-71
2022/06/09 11:17:43;;;;;;;4.68;1.58;;;;;;;24.61;55.49;98488.88;5065717;28;20235;-70
2022/06/09 11:20:20;;;;;;;7.53;1.17;;;;;;;22.90;56.60;98489.25;5065837;28;20047;-70
2022/06/09 11:22:55;;;;;;;4.68;1.42;;;;;;;21.77;60.18;98493.63;5065834;28;20027;-70
2022/06/09 11:25:45;;;;;;;8.88;1.27;;;;;;;21.23;61.16;98498.91;5065728;28;20031;-71
2022/06/09 11:28:17;;;;;;;3.40;1.00;;;;;;;20.99;60.92;98500.47;5065300;28;20029;-70
2022/06/09 11:31:04;;;;;;;7.43;1.63;;;;;;;20.69;60.67;98491.63;5065709;28;20063;-70
2022/06/09 11:33:47;;;;;;;5.05;1.00;;;;;;;20.48;62.69;98494.78;5065597;28;20101;-70
2022/06/09 11:36:27;;;;;;;4.82;1.55;;;;;;;20.52;63.80;98501.66;5065620;28;20128;-70
2022/06/09 11:39:19;;;;;;;11.95;2.22;;;;;;;20.04;65.51;98502.78;5065519;28;20311;-70
2022/06/09 11:42:14;;;;;;;7.28;1.50;;;;;;;20.39;67.26;98498.00;5064430;28;20044;-70
2022/06/09 11:44:42;;;;;;;12.85;2.20;;;;;;;20.57;67.20;98503.09;5047249;28;20179;-71
2022/06/09 11:47:14;;;;;;;8.77;1.75;;;;;;;20.49;65.51;98496.50;5065225;28;20221;-71
2022/06/09 11:49:42;;;;;;;;;;;;;;;20.67;66.24;98504.28;5065692;28;20084;-71
2022/06/09 11:52:24;;;;;;;5.35;1.25;;;;;;;20.76;63.49;98495.66;5065223;28;19904;-71
2022/06/09 11:54:50;;;;;;;11.02;1.50;;;;;;;20.70;64.44;98492.50;5065191;28;20032;-71
2022/06/09 11:57:15;;;;;;;6.55;1.77;;;;;;;20.89;63.50;98493.91;5065119;28;20066;-71
2022/06/09 12:00:10;;;;;;;6.15;1.38;;;;;;;20.69;63.67;98502.34;5065036;28;20028;-71
2022/06/09 12:03:00;;;;;;;2.25;1.20;;;;;;;20.84;65.36;98501.41;5065058;28;20025;-71
2022/06/09 12:05:47;;;;;;;11.50;2.17;;;;;;;20.43;64.01;98505.75;5064942;28;20029;-71
2022/06/09 12:08:21;;;;;;;3.72;1.00;;;;;;;20.57;63.24;98505.75;5064864;28;20017;-71
2022/06/09 12:11:05;;;;;;;9.40;1.40;;;;;;;20.99;62.04;98508.50;5064910;28;20092;-71
2022/06/09 12:13:45;;;;;;;8.77;2.13;;;;;;;21.49;63.30;98515.09;5064762;28;20025;-71
2022/06/09 12:16:22;;;;;;;4.57;1.20;;;;;;;21.81;59.64;98511.19;5064771;28;20296;-71
2022/06/09 12:19:21;;;;;;;6.35;1.05;;;;;;;21.90;59.99;98505.22;5064615;28;20044;-71
2022/06/09 12:21:59;;;;;;;7.03;1.33;;;;;;;22.09;59.36;98490.50;5064695;28;20028;-71
2022/06/09 12:24:35;;;;;;;5.07;1.23;;;;;;;21.85;59.59;98496.63;5064639;28;20024;-71
2022/06/09 12:27:17;;;;;;;11.35;1.67;;;;;;;21.29;60.16;98503.84;5064449;28;20029;-71
2022/06/09 12:30:24;;;;;;;7.53;1.45;;;;;;;20.45;60.60;98508.34;5064519;28;20045;-70
2022/06/09 12:33:11;;;;;;;2.40;1.10;;;;;;;20.20;59.48;98516.97;5064735;28;20087;-71
2022/06/09 12:36:02;;;;;;;5.07;1.00;;;;;;;19.86;61.98;98509.19;5064431;28;20091;-71
2022/06/09 12:38:28;;;;;;;6.13;1.10;;;;;;;19.77;62.34;98528.41;5061250;28;20039;-71
2022/06/09 12:40:58;;;;;;;6.70;1.70;;;;;;;19.99;62.95;98526.22;5064367;28;20044;-71
2022/06/09 12:43:35;;;;;;;7.90;1.48;;;;;;;20.52;62.98;98520.38;5064230;28;20020;-71
2022/06/09 12:46:25;;;;;;;11.00;1.80;;;;;;;20.81;64.76;98523.00;5064251;28;20032;-71
2022/06/09 12:48:53;;;;;;;5.93;1.15;;;;;;;20.81;63.24;98517.63;5064182;28;20043;-71
2022/06/09 12:51:39;;;;;;;9.23;1.20;;;;;;;20.73;62.06;98522.59;5064213;28;20276;-71
2022/06/09 12:54:20;;;;;;;6.68;1.05;;;;;;;20.32;61.87;98523.41;5063740;28;20070;-71
2022/06/09 12:57:12;;;;;;;4.50;0.85;;;;;;;20.03;63.50;98529.59;5064161;28;20040;-71
2022/06/09 12:59:40;;;;;;;8.75;1.45;;;;;;;20.35;61.89;98532.06;5064358;28;20017;-71
2022/06/09 13:02:28;;;;;;;6.22;1.05;;;;;;;20.50;61.15;98528.50;5064049;28;20024;-71
2022/06/09 13:05:01;;;;;;;3.65;1.08;;;;;;;20.37;59.24;98522.16;5064263;28;20021;-71
2022/06/09 13:07:33;;;;;;;7.95;1.60;;;;;;;20.06;60.76;98532.09;5064132;28;20212;-71
2022/06/09 13:10:17;;;;;;;5.90;1.77;;;;;;;19.99;61.25;98536.91;5063936;28;20025;-71
2022/06/09 13:12:51;;;;;;;5.68;1.27;;;;;;;19.96;62.70;98533.56;5064010;28;20078;-71
2022/06/09 13:15:35;;;;;;;4.10;1.40;;;;;;;19.74;62.21;98541.94;5063892;28;20025;-71
2022/06/09 13:18:12;;;;;;;6.75;1.55;;;;;;;19.51;63.24;98550.41;5063701;28;20045;-71
2022/06/09 13:20:41;;;;;;;4.57;1.10;;;;;;;19.65;62.96;98552.31;5063830;28;20074;-71
2022/06/09 13:23:09;;;;;;;6.55;2.05;;;;;;;19.89;61.95;98557.09;5063788;28;20219;-71
2022/06/09 13:25:35;;;;;;;8.45;1.48;;;;;;;20.12;63.68;98551.31;5063806;28;20025;-71
2022/06/09 13:28:01;;;;;;;2.15;0.95;;;;;;;19.99;62.45;98552.94;5063657;28;20021;-71
2022/06/09 13:30:48;;;;;;;6.22;1.83;;;;;;;19.63;60.88;98544.38;5063763;28;20032;-71
2022/06/09 13:33:23;;;;;;;10.93;1.55;;;;;;;19.62;61.30;98552.50;5063761;28;20323;-70
2022/06/09 13:35:52;;;;;;;8.30;1.52;;;;;;;19.55;63.07;98557.28;5063727;28;20025;-70
2022/06/09 13:38:19;;;;;;;7.63;1.15;;;;;;;19.52;62.57;98557.47;5063696;28;20084;-71
2022/06/09 13:40:49;;;;;;;5.47;1.40;;;;;;;19.58;60.23;98551.78;5063746;28;20025;-71
2022/06/09 13:43:24;;;;;;;9.10;1.02;;;;;;;19.54;60.37;98557.38;5063739;28;20031;-71
2022/06/09 13:46:01;;;;;;;7.20;1.30;;;;;;;19.54;61.24;98560.94;5063577;28;20083;-71
2022/06/09 13:48:39;;;;;;;9.38;1.45;;;;;;;19.61;61.36;98572.97;5063614;28;20219;-71
2022/06/09 13:51:06;;;;;;;3.38;1.08;;;;;;;19.57;60.74;98571.44;5063574;28;20083;-71
2022/06/09 13:54:01;;;;;;;4.32;1.15;;;;;;;19.50;63.37;98575.41;5063524;28;20108;-71
2022/06/09 13:56:26;;;;;;;3.45;1.08;;;;;;;19.46;61.52;98581.88;5053964;28;20037;-71
2022/06/09 13:58:52;;;;;;;5.97;1.00;;;;;;;19.23;63.15;98590.22;5063524;28;20074;-71
2022/06/09 14:01:17;;;;;;;5.05;1.75;;;;;;;19.37;61.87;98590.38;5063467;28;20088;-71
2022/06/09 14:03:47;;;;;;;4.78;1.13;;;;;;;19.27;63.38;98599.84;5063452;28;20334;-71
2022/06/09 14:06:17;;;;;;;3.85;1.15;;;;;;;19.19;63.11;98591.34;5067429;28;20133;-71
2022/06/09 14:08:45;;;;;;;4.55;1.05;;;;;;;19.25;62.72;98607.03;5067182;28;20212;-71
2022/06/09 14:11:23;;;;;;;4.78;1.33;;;;;;;19.08;62.34;98604.41;5067150;28;20397;-71
2022/06/09 14:13:53;;;;;;;7.40;1.33;;;;;;;18.98;63.39;98603.16;5067104;28;20048;-71
2022/06/09 14:16:26;;;;;;;8.10;1.20;;;;;;;19.01;63.14;98609.19;5067161;28;20028;-71
2022/06/09 14:18:52;;;;;;;6.22;1.77;;;;;;;19.04;61.09;98606.38;5066941;28;20041;-71
2022/06/09 14:21:18;;;;;;;5.88;0.95;;;;;;;19.16;60.71;98595.03;5067207;28;20020;-71
2022/06/09 14:23:43;;;;;;;2.50;1.10;;;;;;;19.21;63.25;98610.81;5067018;28;20315;-71
2022/06/09 14:26:26;;;;;;;5.25;1.20;;;;;;;19.44;62.68;98607.78;5066851;28;20078;-71
2022/06/09 14:28:55;;;;;;;7.70;1.25;;;;;;;19.52;60.91;98616.19;5066948;28;20021;-71
2022/06/09 14:31:23;;;;;;;9.32;1.48;;;;;;;19.60;61.98;98618.44;5066750;28;20063;-71
2022/06/09 14:33:49;;;;;;;5.75;1.05;;;;;;;19.74;59.68;98616.72;5063025;28;20358;-71
2022/06/09 14:36:17;;;;;;;6.63;1.17;;;;;;;19.85;62.01;98613.47;5065751;28;20096;-71
2022/06/09 14:38:43;;;;;;;11.43;1.30;;;;;;;19.79;60.10;98620.03;5066736;28;20295;-71
2022/06/09 14:41:12;;;;;;;6.93;1.50;;;;;;;19.77;60.15;98616.56;5063100;28;20070;-71
2022/06/09 14:43:37;;;;;;;3.95;0.88;;;;;;;19.76;58.37;98608.63;5064940;28;20312;-71
2022/06/09 14:46:03;;;;;;;2.50;1.23;;;;;;;19.64;60.73;98612.03;5065551;28;20127;-71
2022/06/09 14:48:33;;;;;;;6.13;1.27;;;;;;;19.81;61.40;98606.56;5065452;28;20028;-71
2022/06/09 14:50:59;;;;;;;5.70;0.95;;;;;;;19.74;58.48;98614.06;5064637;28;20057;-71
2022/06/09 14:53:25;;;;;;;2.88;1.13;;;;;;;19.62;59.72;98617.44;5046034;28;20025;-71
2022/06/09 14:55:53;;;;;;;5.97;1.38;;;;;;;19.57;60.92;98624.84;5045688;28;20029;-71
2022/06/09 14:58:22;;;;;;;6.45;1.23;;;;;;;19.71;60.70;98627.59;5045681;28;20021;-71
2022/06/09 15:00:48;;;;;;;8.05;1.67;;;;;;;19.76;61.39;98619.31;5053693;28;20379;-70
2022/06/09 15:03:13;;;;;;;5.13;1.55;;;;;;;19.85;60.01;98630.34;5064764;28;20029;-71
2022/06/09 15:05:40;;;;;;;3.25;1.00;;;;;;;19.92;58.65;98626.38;5056530;28;20336;-71
2022/06/09 15:08:07;;;;;;;5.70;1.13;;;;;;;19.90;59.37;98628.28;5052123;28;20025;-71
2022/06/09 15:10:38;;;;;;;3.80;1.00;;;;;;;19.80;58.74;98627.06;5053710;28;20092;-71
2022/06/09 15:13:06;;;;;;;7.13;1.17;;;;;;;19.81;59.33;98630.63;5045151;28;20025;-71
2022/06/09 15:15:32;;;;;;;6.28;1.45;;;;;;;19.71;57.39;98635.59;5051317;28;20024;-71
2022/06/09 15:17:58;;;;;;;3.42;1.05;;;;;;;19.51;57.98;98635.84;5056101;28;20036;-71
2022/06/09 15:20:29;;;;;;;2.40;0.90;;;;;;;19.44;58.41;98633.59;5046220;28;20033;-71
2022/06/09 15:22:54;;;;;;;7.88;1.20;;;;;;;19.35;58.39;98639.44;5056799;28;20136;-71
2022/06/09 15:25:20;;;;;;;6.78;1.52;;;;;;;19.31;58.58;98629.88;5052062;28;20021;-71
2022/06/09 15:27:46;;;;;;;7.68;1.92;;;;;;;19.34;60.70;98637.72;5045817;28;20028;-71
2022/06/09 15:30:20;;;;;;;5.25;1.42;;;;;;;19.22;58.27;98636.53;5050082;28;20019;-71
2022/06/09 15:32:45;;;;;;;2.75;0.93;;;;;;;18.97;60.10;98644.13;5044766;28;20188;-71
2022/06/09 15:35:12;;;;;;;4.72;1.02;;;;;;;18.94;60.05;98652.28;5053112;28;20346;-71
2022/06/09 15:37:39;;;;;;;3.00;0.98;;;;;;;18.87;59.98;98645.56;5055036;28;20021;-71
2022/06/09 15:40:07;;;;;;;1.77;1.02;;;;;;;18.90;59.84;98645.41;5058732;28;20374;-71
2022/06/09 15:42:33;;;;;;;4.22;1.17;;;;;;;19.03;60.28;98643.81;5063102;28;20021;-71
2022/06/09 15:44:58;;;;;;;8.57;1.23;;;;;;;19.10;59.57;98645.19;5044507;28;20032;-71
2022/06/09 15:47:23;;;;;;;3.67;0.90;;;;;;;19.18;59.11;98643.00;5051097;28;20111;-71
2022/06/09 15:49:49;;;;;;;7.15;1.10;;;;;;;19.18;59.38;98643.00;5063375;28;20067;-70
2022/06/09 15:52:14;;;;;;;8.52;1.45;;;;;;;19.29;59.68;98639.78;5063815;28;20499;-70
2022/06/09 15:54:39;;;;;;;4.03;1.00;;;;;;;19.36;59.28;98639.34;5054390;28;20023;-70
2022/06/09 15:57:05;;;;;;;3.55;0.80;;;;;;;19.33;58.84;98642.19;5062054;28;20319;-70
2022/06/09 15:59:31;;;;;;;6.38;1.13;;;;;;;19.38;57.49;98640.13;5057212;28;20057;-70
2022/06/09 16:02:08;;;;;;;12.60;1.67;;;;;;;19.35;56.67;98650.97;5043752;28;20071;-70
2022/06/09 16:04:38;;;;;;;6.75;1.10;;;;;;;19.42;58.80;98660.38;5058870;28;20032;-70
2022/06/09 16:07:05;;;;;;;9.30;1.33;;;;;;;19.46;59.00;98653.94;5054276;28;20084;-70
2022/06/09 16:09:30;;;;;;;4.40;0.95;;;;;;;19.58;58.28;98653.25;5063664;28;20247;-70
2022/06/09 16:11:56;;;;;;;4.95;1.05;;;;;;;19.53;56.58;98652.66;5044594;28;20036;-71
2022/06/09 16:14:21;;;;;;;3.53;1.00;;;;;;;19.47;58.00;98655.66;5043530;28;20052;-71
2022/06/09 16:16:47;;;;;;;5.50;1.38;;;;;;;19.47;58.12;98655.66;5051994;28;20044;-71
2022/06/09 16:19:12;;;;;;;5.88;1.90;;;;;;;19.38;58.28;98650.81;5056414;28;20232;-71
2022/06/09 16:21:37;;;;;;;4.30;1.05;;;;;;;19.33;58.73;98658.19;5047723;28;20159;-71
2022/06/09 16:24:03;;;;;;;9.18;1.83;;;;;;;19.38;59.91;98658.81;5058457;28;20029;-71
2022/06/09 16:26:29;;;;;;;5.38;1.30;;;;;;;19.45;61.22;98657.53;5057339;28;20021;-71
2022/06/09 16:28:54;;;;;;;10.45;1.25;;;;;;;19.46;59.95;98664.63;5048954;28;20246;-71
2022/06/09 16:31:19;;;;;;;5.07;1.25;;;;;;;19.39;59.97;98662.38;5057053;28;20345;-71
2022/06/09 16:33:45;;;;;;;5.40;1.48;;;;;;;19.27;59.09;98655.88;5051675;28;20021;-71
2022/06/09 16:36:15;;;;;;;5.00;1.52;;;;;;;19.27;60.58;98662.06;5046224;28;20095;-71
2022/06/09 16:38:40;;;;;;;4.68;1.27;;;;;;;19.33;60.16;98660.88;5044616;28;20032;-71
2022/06/09 16:41:06;;;;;;;3.00;1.00;;;;;;;19.27;59.17;98664.72;5054981;28;20067;-70
2022/06/09 16:43:31;;;;;;;4.45;0.88;;;;;;;19.30;58.75;98673.53;5054606;28;20351;-70
2022/06/09 16:45:56;;;;;;;9.05;1.58;;;;;;;19.35;59.21;98677.66;5049264;28;20096;-70
2022/06/09 16:48:22;;;;;;;10.13;1.17;;;;;;;19.33;59.60;98674.22;5055504;28;20317;-71
2022/06/09 16:50:49;;;;;;;7.43;1.20;;;;;;;19.21;58.70;98674.84;5050058;28;20193;-71
2022/06/09 16:53:15;;;;;;;7.13;1.23;;;;;;;19.09;59.38;98683.50;5054192;28;20303;-71
2022/06/09 16:55:41;;;;;;;4.03;1.38;;;;;;;18.95;59.74;98688.69;5062906;28;20316;-70
2022/06/09 16:58:07;;;;;;;5.20;0.90;;;;;;;18.75;60.51;98686.19;5048964;28;20021;-71
2022/06/09 17:00:32;;;;;;;3.78;1.17;;;;;;;18.69;60.57;98697.16;5043179;28;20059;-71
2022/06/09 17:02:58;;;;;;;3.60;1.00;;;;;;;18.53;64.04;98698.88;5043504;28;20210;-71
2022/06/09 17:05:27;;;;;;;15.15;1.60;;;;;;;18.42;65.13;98698.56;5043142;28;20052;-71
2022/06/09 17:07:59;;;;;;;10.05;1.63;;;;;;;18.34;67.15;98706.03;5057147;28;20025;-71
2022/06/09 17:10:27;;;;;;;13.10;1.50;;;;;;;18.30;70.67;98710.66;5062232;28;20028;-71
2022/06/09 17:12:53;;;;;;;6.80;1.48;;;;;;;18.25;71.08;98707.34;5059870;28;20051;-71
2022/06/09 17:15:19;;;;;;;5.80;1.40;;;;;;;18.23;70.81;98703.03;5043525;28;20032;-70
2022/06/09 17:17:44;;;;;;;5.05;1.38;;;;;;;18.28;71.29;98706.31;5042915;28;20337;-71
2022/06/09 17:20:11;;;;;;;6.88;1.50;;;;;;;18.35;67.89;98710.44;5051246;28;20063;-71